Brandeis, California
Current Conditions -  °F | °C
As of 2:51 PM on Thursday 18 Dec 2014 (Local Time) from KVNY Reporting Station
Overcast Overcast  
Wind Chill: 61°   Ceiling: 6000
Heat Index: 61°   Visibility: 10mi
Dew Point: 44°   Wind: 0mph
Humidity: 54%   Direction: NA
Pressure: 30.13"   Gusts: NA
Location:  34.23°N, 118.72°W
Report Text: KVNY 182251Z 00000KT 10SM OVC060 16/07 A3013 RMK AO2 SLP199 T01610067
Loading
Personal Weather Stations






























Interactive Weather Map New forecast layout! Learn more

10-Day Weather Forecast

Advertisements
Track Severe Weather on mobile